Sitiawan, Malaysia
Current Conditions -  °F | °C
As of 6:00 PM on Thursday 18 Dec 2014 (Local Time) from WMBA Reporting Station
Broken Clouds Broken Clouds  
Wind Chill: 82°   Ceiling: 26000
Heat Index: 91°   Visibility: 6mi
Dew Point: 77°   Wind: 3mph
Humidity: 84%   Direction: 330°NNW
Pressure: 29.77"   Gusts: NA
Location:  4.22°N, 100.7°E
Report Text: WMBA 181000Z 33003KT 9999 FEW017CB SCT035 BKN260 28/25 Q1008
Loading
Personal Weather Stations






























Interactive Weather Map New forecast layout! Learn more

10-Day Weather Forecast

Advertisements
Track Severe Weather on mobile